createdAt,value
2022-11-03T00:01:15.317Z,96765.50
2022-11-03T00:03:42.890Z,96765.41
2022-11-03T00:06:11.767Z,96766.44
2022-11-03T00:08:41.515Z,96757.72
2022-11-03T00:11:11.326Z,96758.84
2022-11-03T00:13:40.671Z,96750.34
2022-11-03T00:16:09.539Z,96743.56
2022-11-03T00:18:37.428Z,96750.56
2022-11-03T00:21:06.438Z,96743.09
2022-11-03T00:23:37.143Z,96749.09
2022-11-03T00:26:06.748Z,96744.66
2022-11-03T00:28:35.166Z,96743.91
2022-11-03T00:31:06.759Z,96741.34
2022-11-03T00:33:34.398Z,96743.44
2022-11-03T00:36:02.598Z,96737.22
2022-11-03T00:38:30.772Z,96738.34
2022-11-03T00:41:01.264Z,96741.41
2022-11-03T00:43:30.444Z,96738.81
2022-11-03T00:45:58.100Z,96729.69
2022-11-03T00:48:32.424Z,96728.06
2022-11-03T00:51:04.581Z,96734.72
2022-11-03T00:53:33.154Z,96733.38
2022-11-03T00:56:02.320Z,96736.31
2022-11-03T00:58:30.081Z,96722.25
2022-11-03T01:01:02.582Z,96720.94
2022-11-03T01:03:30.484Z,96722.53
2022-11-03T01:06:15.574Z,96719.31
2022-11-03T01:08:43.137Z,96718.28
2022-11-03T01:11:31.650Z,96714.84
2022-11-03T01:13:59.566Z,96707.69
2022-11-03T01:16:27.651Z,96701.94
2022-11-03T01:18:55.818Z,96704.34
2022-11-03T01:21:23.481Z,96698.41
2022-11-03T01:23:51.282Z,96684.66
2022-11-03T01:26:20.326Z,96689.44
2022-11-03T01:28:48.812Z,96682.44
2022-11-03T01:31:18.411Z,96683.72
2022-11-03T01:33:47.083Z,96681.13
2022-11-03T01:36:15.939Z,96672.81
2022-11-03T01:38:44.390Z,96674.72
2022-11-03T01:41:14.905Z,96670.88
2022-11-03T01:43:44.450Z,96668.53
2022-11-03T01:46:19.268Z,96661.75
2022-11-03T01:48:56.892Z,96658.84
2022-11-03T01:51:27.908Z,96662.69
2022-11-03T01:53:58.100Z,96661.50
2022-11-03T01:56:27.219Z,96654.94
2022-11-03T01:58:56.731Z,96661.19
2022-11-03T02:01:24.613Z,96659.09
2022-11-03T02:03:56.096Z,96659.09
2022-11-03T02:06:26.962Z,96645.56
2022-11-03T02:09:00.986Z,96649.63
2022-11-03T02:11:46.249Z,96636.94
2022-11-03T02:14:15.885Z,96636.81
2022-11-03T02:16:48.767Z,96634.91
2022-11-03T02:19:23.442Z,96625.28
2022-11-03T02:21:59.791Z,96629.63
2022-11-03T02:24:37.195Z,96621.72
2022-11-03T02:27:06.147Z,96625.19
2022-11-03T02:29:33.817Z,96624.38
2022-11-03T02:32:08.112Z,96620.31
2022-11-03T02:34:43.382Z,96613.34
2022-11-03T02:37:16.393Z,96607.00
2022-11-03T02:39:47.812Z,96610.13
2022-11-03T02:42:20.043Z,96609.41
2022-11-03T02:44:48.857Z,96602.00
2022-11-03T02:47:19.092Z,96601.41
2022-11-03T02:49:48.258Z,96598.22
2022-11-03T02:52:37.734Z,96598.59
2022-11-03T02:55:13.372Z,96598.59
2022-11-03T02:57:49.893Z,96595.97
2022-11-03T03:00:18.177Z,96592.94
2022-11-03T03:02:56.206Z,96599.84
2022-11-03T03:05:27.344Z,96597.59
2022-11-03T03:08:00.878Z,96590.63
2022-11-03T03:10:33.532Z,96594.06
2022-11-03T03:13:04.810Z,96591.16
2022-11-03T03:15:41.724Z,96584.00
2022-11-03T03:18:17.464Z,96577.28
2022-11-03T03:20:53.234Z,96574.06
2022-11-03T03:23:32.609Z,96568.88
2022-11-03T03:26:04.730Z,96569.78
2022-11-03T03:28:37.995Z,96567.03
2022-11-03T03:31:09.859Z,96570.56
2022-11-03T03:33:42.047Z,96573.22
2022-11-03T03:36:15.517Z,96574.34
2022-11-03T03:38:47.367Z,96580.06
2022-11-03T03:41:21.969Z,96562.47
2022-11-03T03:43:54.587Z,96559.81
2022-11-03T03:46:25.039Z,96553.06
2022-11-03T03:48:52.616Z,96542.47
2022-11-03T03:51:24.030Z,96554.66
2022-11-03T03:53:53.073Z,96565.06
2022-11-03T03:56:24.672Z,96561.94
2022-11-03T03:58:53.562Z,96566.91
2022-11-03T04:01:21.228Z,96563.66
2022-11-03T04:03:49.098Z,96549.25
2022-11-03T04:06:16.741Z,96552.88
2022-11-03T04:08:44.720Z,96549.41
2022-11-03T04:11:29.909Z,96550.81
2022-11-03T04:14:17.056Z,96546.22
2022-11-03T04:17:02.081Z,96549.06
2022-11-03T04:19:47.393Z,96547.25
2022-11-03T04:22:17.616Z,96534.47
2022-11-03T04:24:46.409Z,96532.28
2022-11-03T04:27:27.775Z,96538.22
2022-11-03T04:29:59.167Z,96533.09
2022-11-03T04:32:27.106Z,96529.81
2022-11-03T04:34:55.077Z,96526.59
2022-11-03T04:37:23.128Z,96536.09
2022-11-03T04:39:50.756Z,96531.63
2022-11-03T04:42:20.464Z,96527.56
2022-11-03T04:44:49.250Z,96530.16
2022-11-03T04:47:19.521Z,96514.16
2022-11-03T04:49:48.514Z,96518.19
2022-11-03T04:52:17.946Z,96517.44
2022-11-03T04:54:47.517Z,96515.16
2022-11-03T04:57:17.057Z,96515.75
2022-11-03T04:59:48.411Z,96508.22
2022-11-03T05:02:20.057Z,96492.56
2022-11-03T05:04:47.844Z,96498.47
2022-11-03T05:07:25.408Z,96498.66
2022-11-03T05:09:53.232Z,96497.84
2022-11-03T05:12:21.687Z,96481.25
2022-11-03T05:14:51.901Z,96485.22
2022-11-03T05:17:27.030Z,96487.25
2022-11-03T05:19:58.824Z,96479.41
2022-11-03T05:22:30.338Z,96480.44
2022-11-03T05:25:03.574Z,96471.97
2022-11-03T05:27:31.427Z,96472.69
2022-11-03T05:30:01.429Z,96467.31
2022-11-03T05:32:35.180Z,96464.72
2022-11-03T05:35:03.491Z,96457.94
2022-11-03T05:37:33.643Z,96456.53
2022-11-03T05:40:04.967Z,96459.69
2022-11-03T05:42:38.694Z,96453.78
2022-11-03T05:45:16.967Z,96447.00
2022-11-03T05:47:45.902Z,96451.50
2022-11-03T05:50:20.893Z,96445.34
2022-11-03T05:52:51.588Z,96444.28
2022-11-03T05:55:27.691Z,96438.59
2022-11-03T05:57:58.371Z,96438.44
2022-11-03T06:00:29.272Z,96440.53
2022-11-03T06:02:59.585Z,96442.91
2022-11-03T06:05:28.793Z,96441.03
2022-11-03T06:07:57.517Z,96442.91
2022-11-03T06:10:27.348Z,96444.09
2022-11-03T06:13:00.327Z,96453.66
2022-11-03T06:15:32.792Z,96449.34
2022-11-03T06:18:11.234Z,96432.19
2022-11-03T06:20:38.800Z,96434.88
2022-11-03T06:23:10.499Z,96436.69
2022-11-03T06:25:41.842Z,96429.72
2022-11-03T06:28:16.283Z,96421.88
2022-11-03T06:30:44.091Z,96419.00
2022-11-03T06:33:16.464Z,96417.78
2022-11-03T06:35:45.122Z,96411.53
2022-11-03T06:38:20.766Z,96406.81
2022-11-03T06:40:51.048Z,96400.81
2022-11-03T06:43:22.652Z,96410.94
2022-11-03T06:45:53.015Z,96406.78
2022-11-03T06:48:27.617Z,96396.38
2022-11-03T06:50:56.902Z,96395.97
2022-11-03T06:53:30.527Z,96392.66
2022-11-03T06:55:58.406Z,96396.72
2022-11-03T06:58:29.937Z,96387.13
2022-11-03T07:01:03.616Z,96385.16
2022-11-03T07:03:37.472Z,96390.00
2022-11-03T07:06:16.165Z,96377.34
2022-11-03T07:08:45.966Z,96375.06
2022-11-03T07:11:18.332Z,96373.00
2022-11-03T07:13:47.373Z,96366.28
2022-11-03T07:16:19.213Z,96368.81
2022-11-03T07:18:48.741Z,96367.66
2022-11-03T07:21:42.231Z,96366.38
2022-11-03T07:24:17.388Z,96361.47
2022-11-03T07:26:45.112Z,96370.59
2022-11-03T07:29:21.034Z,96368.50
2022-11-03T07:31:49.376Z,96362.88
2022-11-03T07:34:22.954Z,96361.84
2022-11-03T07:36:55.624Z,96350.22
2022-11-03T07:39:23.407Z,96345.59
2022-11-03T07:41:51.883Z,96341.38
2022-11-03T07:44:21.655Z,96352.28
2022-11-03T07:46:50.659Z,96345.84
2022-11-03T07:49:27.704Z,96346.03
2022-11-03T07:51:57.179Z,96344.59
2022-11-03T07:54:27.591Z,96329.03
2022-11-03T07:56:59.115Z,96325.19
2022-11-03T07:59:31.936Z,96329.16
2022-11-03T08:02:00.894Z,96322.22
2022-11-03T08:04:32.576Z,96316.31
2022-11-03T08:07:00.175Z,96318.19
2022-11-03T08:09:28.050Z,96309.38
2022-11-03T08:11:55.586Z,96308.06
2022-11-03T08:14:23.142Z,96307.38
2022-11-03T08:16:50.669Z,96291.66
2022-11-03T08:19:18.193Z,96292.03
2022-11-03T08:21:47.082Z,96288.44
2022-11-03T08:24:14.607Z,96289.31
2022-11-03T08:26:42.129Z,96283.16
2022-11-03T08:29:09.949Z,96274.56
2022-11-03T08:31:37.500Z,96275.19
2022-11-03T08:34:05.068Z,96262.78
2022-11-03T08:36:32.670Z,96268.41
2022-11-03T08:39:01.628Z,96252.00
2022-11-03T08:41:29.162Z,96248.44
2022-11-03T08:43:56.828Z,96246.00
2022-11-03T08:46:24.371Z,96242.94
2022-11-03T08:48:51.937Z,96242.88
2022-11-03T08:51:19.522Z,96249.47
2022-11-03T08:53:50.507Z,96237.63
2022-11-03T08:56:22.349Z,96230.78
2022-11-03T08:58:50.755Z,96223.03
2022-11-03T09:01:18.648Z,96229.88
2022-11-03T09:03:46.276Z,96223.31
2022-11-03T09:06:14.574Z,96213.44
2022-11-03T09:11:30.986Z,96215.78
2022-11-03T09:13:58.552Z,96212.47
2022-11-03T09:16:26.539Z,96205.97
2022-11-03T09:18:54.167Z,96203.72
2022-11-03T09:21:21.696Z,96201.31
2022-11-03T09:23:49.253Z,96196.72
2022-11-03T09:26:16.896Z,96196.84
2022-11-03T09:28:45.905Z,96188.19
2022-11-03T09:31:13.786Z,96178.38
2022-11-03T09:33:41.347Z,96167.91
2022-11-03T09:36:09.440Z,96174.84
2022-11-03T09:38:37.038Z,96170.25
2022-11-03T09:41:13.563Z,96177.63
2022-11-03T09:43:54.900Z,96165.06
2022-11-03T09:46:22.426Z,96162.28
2022-11-03T09:48:49.981Z,96154.38
2022-11-03T09:51:21.715Z,96147.69
2022-11-03T09:53:49.842Z,96148.19
2022-11-03T09:56:20.375Z,96143.06
2022-11-03T09:58:53.073Z,96140.00
2022-11-03T10:01:23.573Z,96127.59
2022-11-03T10:03:51.301Z,96128.81
2022-11-03T10:06:18.908Z,96129.91
2022-11-03T10:08:48.282Z,96124.34
2022-11-03T10:11:16.118Z,96119.44
2022-11-03T10:13:48.820Z,96121.72
2022-11-03T10:16:19.530Z,96106.47
2022-11-03T10:18:48.567Z,96112.06
2022-11-03T10:21:17.981Z,96107.59
2022-11-03T10:23:45.789Z,96106.50
2022-11-03T10:26:16.394Z,96102.78
2022-11-03T10:28:59.238Z,96111.84
2022-11-03T10:31:34.487Z,96103.53
2022-11-03T10:34:04.140Z,96105.25
2022-11-03T10:36:34.233Z,96100.59
2022-11-03T10:39:30.660Z,96090.94
2022-11-03T10:41:59.919Z,96086.53
2022-11-03T10:44:29.179Z,96081.56
2022-11-03T10:46:58.336Z,96059.03
2022-11-03T10:49:26.366Z,96064.63
2022-11-03T10:51:56.103Z,96060.69
2022-11-03T10:54:26.285Z,96050.59
2022-11-03T10:56:54.054Z,96056.69
2022-11-03T10:59:25.272Z,96055.78
2022-11-03T11:01:53.269Z,96051.97
2022-11-03T11:04:21.985Z,96059.13
2022-11-03T11:06:49.792Z,96055.03
2022-11-03T11:09:25.484Z,96048.03
2022-11-03T11:12:05.316Z,96044.38
2022-11-03T11:14:39.239Z,96048.34
2022-11-03T11:17:07.377Z,96043.56
2022-11-03T11:20:05.245Z,96039.06
2022-11-03T11:22:32.770Z,96046.91
2022-11-03T11:25:02.454Z,96042.97
2022-11-03T11:27:58.941Z,96048.13
2022-11-03T11:31:03.578Z,96039.06
2022-11-03T11:33:33.073Z,96025.97
2022-11-03T11:36:20.040Z,96025.34
2022-11-03T11:39:05.846Z,96024.06
2022-11-03T11:42:11.974Z,96015.66
2022-11-03T11:45:02.942Z,96011.47
2022-11-03T11:47:43.693Z,96010.88
2022-11-03T11:50:23.259Z,95999.16
2022-11-03T11:52:56.837Z,95997.84
2022-11-03T11:55:30.966Z,95979.75
2022-11-03T11:58:00.287Z,95978.72
2022-11-03T12:00:31.292Z,95977.53
2022-11-03T12:03:00.871Z,95971.97
2022-11-03T12:05:32.063Z,95975.50
2022-11-03T12:07:59.797Z,95969.81
2022-11-03T12:10:28.794Z,95969.59
2022-11-03T12:12:57.602Z,95971.69
2022-11-03T12:15:55.169Z,95958.22
2022-11-03T12:18:38.923Z,95961.88
2022-11-03T12:21:09.661Z,95952.06
2022-11-03T12:23:41.107Z,95952.22
2022-11-03T12:26:17.390Z,95945.53
2022-11-03T12:28:45.411Z,95940.28
2022-11-03T12:31:14.281Z,95936.25
2022-11-03T12:33:41.829Z,95940.25
2022-11-03T12:36:10.165Z,95934.22
2022-11-03T12:38:37.749Z,95922.41
2022-11-03T12:41:19.361Z,95929.72
2022-11-03T12:43:47.112Z,95916.38
2022-11-03T12:46:16.369Z,95914.06
2022-11-03T12:48:44.773Z,95919.63
2022-11-03T12:51:13.765Z,95914.13
2022-11-03T12:53:42.026Z,95913.28
2022-11-03T12:56:10.516Z,95912.41
2022-11-03T12:58:38.432Z,95907.81
2022-11-03T13:01:06.473Z,95901.31
2022-11-03T13:03:36.533Z,95900.16
2022-11-03T13:06:05.593Z,95892.50
2022-11-03T13:08:33.181Z,95889.03
2022-11-03T13:11:00.901Z,95889.47
2022-11-03T13:13:28.830Z,95879.97
2022-11-03T13:15:56.358Z,95881.63
2022-11-03T13:18:23.890Z,95865.94
2022-11-03T13:20:52.784Z,95874.22
2022-11-03T13:23:22.996Z,95868.44
2022-11-03T13:25:50.974Z,95862.03
2022-11-03T13:28:18.584Z,95859.75
2022-11-03T13:30:46.137Z,95853.53
2022-11-03T13:33:13.682Z,95859.72
2022-11-03T13:35:41.246Z,95850.28
2022-11-03T13:38:10.165Z,95851.91
2022-11-03T13:43:25.519Z,95847.28
2022-11-03T13:45:53.891Z,95846.56
2022-11-03T13:49:19.970Z,95834.03
2022-11-03T13:51:11.947Z,95818.78
2022-11-03T13:56:28.732Z,95806.81
2022-11-03T14:01:44.069Z,95798.44
2022-11-03T14:06:59.704Z,95787.47
2022-11-03T14:09:29.177Z,95790.06
2022-11-03T14:12:14.523Z,95786.44
2022-11-03T14:14:42.247Z,95782.84
2022-11-03T14:17:09.873Z,95785.13
2022-11-03T14:19:43.739Z,95786.06
2022-11-03T14:22:13.663Z,95775.44
2022-11-03T14:24:42.545Z,95763.91
2022-11-03T14:27:10.072Z,95760.19
2022-11-03T14:29:37.597Z,95760.81
2022-11-03T14:32:05.521Z,95759.31
2022-11-03T14:34:33.283Z,95762.59
2022-11-03T14:37:01.250Z,95753.47
2022-11-03T14:39:29.258Z,95754.47
2022-11-03T14:42:06.344Z,95753.72
2022-11-03T14:44:35.473Z,95753.88
2022-11-03T14:47:04.758Z,95753.78
2022-11-03T14:49:33.585Z,95747.56
2022-11-03T14:52:02.567Z,95742.13
2022-11-03T14:54:31.172Z,95738.03
2022-11-03T14:57:00.337Z,95726.56
2022-11-03T14:59:27.943Z,95732.75
2022-11-03T15:01:56.459Z,95731.19
2022-11-03T15:04:24.355Z,95726.72
2022-11-03T15:06:51.921Z,95728.75
2022-11-03T15:09:19.669Z,95732.91
2022-11-03T15:11:47.670Z,95725.88
2022-11-03T15:14:16.575Z,95728.38
2022-11-03T15:16:46.095Z,95724.44
2022-11-03T15:19:14.070Z,95723.63
2022-11-03T15:21:41.645Z,95715.53
2022-11-03T15:26:56.932Z,95698.56
2022-11-03T15:29:25.850Z,95694.84
2022-11-03T15:31:53.376Z,95693.13
2022-11-03T15:34:20.902Z,95678.53
2022-11-03T15:36:48.472Z,95677.22
2022-11-03T15:39:16.077Z,95659.66
2022-11-03T15:41:43.583Z,95656.63
2022-11-03T15:44:11.088Z,95642.97
2022-11-03T15:46:39.930Z,95648.03
2022-11-03T15:49:07.497Z,95640.47
2022-11-03T15:51:35.009Z,95637.00
2022-11-03T15:54:03.209Z,95643.88
2022-11-03T15:56:31.285Z,95638.69
2022-11-03T15:58:58.832Z,95631.91
2022-11-03T16:01:26.452Z,95619.94
2022-11-03T16:03:55.394Z,95604.19
2022-11-03T16:06:40.274Z,95620.81
2022-11-03T16:09:10.496Z,95611.72
2022-11-03T16:11:38.028Z,95608.53
2022-11-03T16:14:05.564Z,95598.88
2022-11-03T16:16:33.087Z,95599.50
2022-11-03T16:19:02.079Z,95595.75
2022-11-03T16:21:29.775Z,95589.50
2022-11-03T16:23:57.359Z,95593.47
2022-11-03T16:26:24.921Z,95589.28
2022-11-03T16:28:52.475Z,95584.88
2022-11-03T16:31:20.039Z,95587.66
2022-11-03T16:33:47.584Z,95579.06
2022-11-03T16:36:16.586Z,95581.63
2022-11-03T16:38:44.204Z,95576.50
2022-11-03T16:41:11.777Z,95568.91
2022-11-03T16:43:39.522Z,95560.28
2022-11-03T16:46:07.115Z,95554.16
2022-11-03T16:48:34.923Z,95559.78
2022-11-03T16:51:02.416Z,95563.31
2022-11-03T16:53:31.267Z,95556.09
2022-11-03T16:55:58.844Z,95544.97
2022-11-03T16:58:26.446Z,95546.09
2022-11-03T17:00:54.030Z,95531.91
2022-11-03T17:03:21.595Z,95522.16
2022-11-03T17:05:49.125Z,95518.31
2022-11-03T17:08:50.782Z,95506.06
2022-11-03T17:11:05.730Z,95508.47
2022-11-03T17:13:33.325Z,95498.78
2022-11-03T17:16:00.927Z,95489.41
2022-11-03T17:18:28.486Z,95497.34
2022-11-03T17:20:56.025Z,95485.09
2022-11-03T17:23:23.583Z,95472.38
2022-11-03T17:25:51.175Z,95482.63
2022-11-03T17:28:20.054Z,95467.25
2022-11-03T17:30:48.005Z,95470.09
2022-11-03T17:33:19.628Z,95467.03
2022-11-03T17:35:47.686Z,95463.91
2022-11-03T17:38:17.194Z,95454.38
2022-11-03T17:40:46.048Z,95444.25
2022-11-03T17:43:21.929Z,95442.13
2022-11-03T17:45:49.766Z,95431.66
2022-11-03T17:48:18.353Z,95432.78
2022-11-03T17:50:47.922Z,95425.25
2022-11-03T17:53:22.433Z,95415.31
2022-11-03T17:56:08.832Z,95414.47
2022-11-03T17:58:46.269Z,95416.97
2022-11-03T18:01:21.074Z,95403.22
2022-11-03T18:03:48.722Z,95409.00
2022-11-03T18:06:19.201Z,95394.56
2022-11-03T18:08:47.475Z,95408.25
2022-11-03T18:11:30.746Z,95395.31
2022-11-03T18:14:00.148Z,95385.78
2022-11-03T18:16:27.831Z,95382.78
2022-11-03T18:18:55.394Z,95387.19
2022-11-03T18:21:24.322Z,95390.47
2022-11-03T18:23:51.878Z,95385.34
2022-11-03T18:26:21.195Z,95382.84
2022-11-03T18:28:50.332Z,95373.06
2022-11-03T18:31:24.459Z,95369.81
2022-11-03T18:33:52.730Z,95368.59
2022-11-03T18:36:21.089Z,95369.41
2022-11-03T18:38:49.305Z,95359.84
2022-11-03T18:41:36.263Z,95360.53
2022-11-03T18:44:07.708Z,95344.56
2022-11-03T18:46:36.600Z,95347.22
2022-11-03T18:49:04.200Z,95342.06
2022-11-03T18:51:31.818Z,95342.06
2022-11-03T18:53:59.950Z,95345.84
2022-11-03T18:56:28.367Z,95329.84
2022-11-03T18:58:58.197Z,95325.13
2022-11-03T19:01:27.459Z,95323.56
2022-11-03T19:03:57.341Z,95307.28
2022-11-03T19:06:25.271Z,95303.81
2022-11-03T19:08:59.490Z,95299.16
2022-11-03T19:11:28.005Z,95298.34
2022-11-03T19:13:55.729Z,95288.09
2022-11-03T19:16:24.876Z,95280.72
2022-11-03T19:18:53.263Z,95278.06
2022-11-03T19:21:24.378Z,95288.91
2022-11-03T19:23:58.090Z,95286.34
2022-11-03T19:26:30.264Z,95286.00
2022-11-03T19:29:02.099Z,95279.88
2022-11-03T19:31:33.956Z,95272.47
2022-11-03T19:34:02.073Z,95274.53
2022-11-03T19:36:31.460Z,95269.81
2022-11-03T19:39:00.183Z,95262.00
2022-11-03T19:41:45.557Z,95247.91
2022-11-03T19:44:14.426Z,95241.94
2022-11-03T19:46:42.950Z,95238.06
2022-11-03T19:49:14.563Z,95223.31
2022-11-03T19:51:43.689Z,95220.22
2022-11-03T19:54:16.428Z,95215.03
2022-11-03T19:56:43.985Z,95212.09
2022-11-03T19:59:13.363Z,95206.59
2022-11-03T20:01:41.051Z,95196.22
2022-11-03T20:04:09.494Z,95192.09
2022-11-03T20:06:38.171Z,95192.88
2022-11-03T20:09:08.471Z,95188.47
2022-11-03T20:11:36.593Z,95188.66
2022-11-03T20:14:05.037Z,95184.31
2022-11-03T20:16:32.617Z,95176.97
2022-11-03T20:19:00.164Z,95171.47
2022-11-03T20:21:34.061Z,95177.63
2022-11-03T20:24:02.292Z,95173.72
2022-11-03T20:26:31.385Z,95180.91
2022-11-03T20:28:59.820Z,95174.97
2022-11-03T20:31:27.397Z,95172.31
2022-11-03T20:33:54.908Z,95173.53
2022-11-03T20:36:22.792Z,95168.00
2022-11-03T20:38:53.265Z,95168.00
2022-11-03T20:41:21.076Z,95165.53
2022-11-03T20:43:49.990Z,95157.09
2022-11-03T20:46:23.610Z,95155.44
2022-11-03T20:48:51.639Z,95151.75
2022-11-03T20:51:21.267Z,95145.81
2022-11-03T20:53:49.265Z,95136.16
2022-11-03T20:56:19.779Z,95133.94
2022-11-03T20:58:48.047Z,95136.41
2022-11-03T21:01:19.391Z,95129.00
2022-11-03T21:04:02.583Z,95122.06
2022-11-03T21:06:32.350Z,95121.63
2022-11-03T21:09:00.478Z,95120.41
2022-11-03T21:11:31.044Z,95112.16
2022-11-03T21:14:00.297Z,95106.22
2022-11-03T21:16:48.128Z,95102.28
2022-11-03T21:19:35.178Z,95091.63
2022-11-03T21:22:03.204Z,95094.28
2022-11-03T21:24:30.749Z,95096.59
2022-11-03T21:26:58.287Z,95098.59
2022-11-03T21:29:53.466Z,95099.28
2022-11-03T21:32:17.034Z,95093.53
2022-11-03T21:34:45.091Z,95087.56
2022-11-03T21:37:15.135Z,95082.00
2022-11-03T21:39:43.003Z,95069.91
2022-11-03T21:42:28.494Z,95063.16
2022-11-03T21:44:56.034Z,95058.25
2022-11-03T21:47:25.675Z,95053.53
2022-11-03T21:49:52.673Z,95053.69
2022-11-03T21:52:31.584Z,95048.53
2022-11-03T21:55:00.165Z,95043.69
2022-11-03T21:57:28.418Z,95045.81
2022-11-03T21:59:58.599Z,95050.97
2022-11-03T22:02:29.985Z,95055.94
2022-11-03T22:04:57.897Z,95045.81
2022-11-03T22:07:25.759Z,95045.84
2022-11-03T22:09:53.278Z,95041.78
2022-11-03T22:12:20.868Z,95043.13
2022-11-03T22:15:06.061Z,95039.47
2022-11-03T22:17:35.243Z,95050.75
2022-11-03T22:20:20.532Z,95037.19
2022-11-03T22:23:05.693Z,95028.44
2022-11-03T22:25:50.659Z,95027.97
2022-11-03T22:28:18.450Z,95025.50
2022-11-03T22:31:03.881Z,95028.97
2022-11-03T22:33:52.770Z,95024.91
2022-11-03T22:36:25.586Z,95022.88
2022-11-03T22:39:10.739Z,95031.97
2022-11-03T22:41:55.773Z,95033.41
2022-11-03T22:44:55.706Z,95036.44
2022-11-03T22:47:23.288Z,95036.91
2022-11-03T22:49:52.171Z,95032.00
2022-11-03T22:52:19.683Z,95031.56
2022-11-03T22:54:46.222Z,95034.25
2022-11-03T22:57:14.102Z,95044.69
2022-11-03T22:59:41.873Z,95058.63
2022-11-03T23:02:27.189Z,95058.41
2022-11-03T23:04:56.117Z,95049.56
2022-11-03T23:07:28.442Z,95054.03
2022-11-03T23:09:59.131Z,95042.78
2022-11-03T23:12:26.659Z,95042.41
2022-11-03T23:15:11.893Z,95033.41
2022-11-03T23:17:56.864Z,95032.00
2022-11-03T23:20:43.086Z,95028.50
2022-11-03T23:23:30.646Z,95029.94
2022-11-03T23:25:57.202Z,95036.69
2022-11-03T23:28:24.776Z,95029.31
2022-11-03T23:30:52.311Z,95033.59
2022-11-03T23:33:19.829Z,95034.38
2022-11-03T23:35:48.702Z,95038.78
2022-11-03T23:38:16.251Z,95042.97
2022-11-03T23:40:43.777Z,95050.81
2022-11-03T23:43:11.280Z,95056.56
2022-11-03T23:45:56.530Z,95055.31
2022-11-03T23:48:44.177Z,95058.13
2022-11-03T23:51:13.612Z,95068.59
2022-11-03T23:53:41.127Z,95060.84
2022-11-03T23:56:27.158Z,95071.84
2022-11-03T23:58:55.020Z,95079.59
